UAL1887 KBDL-KEWR
Flight info
| Callsign | UAL1887 |
|---|---|
| Flight time | 0h 36m |
| Altitude | 22000 |
| Route | VEERS IGN FLOSI FLOSI4 |
| Aircraft | B38M/M-SDE1FGHILORVWXY/HB1 |
Departure
| Time | 2026-04-20 20:56 |
|---|---|
| Airport | Bradley International Airport (KBDL) |
Arrival
| Time | 2026-04-20 21:32 |
|---|---|
| Airport | Newark Liberty International Airport (KEWR) |
| Time | Latitude | Longitude | Altitude | Speed | Heading |
|---|---|---|---|---|---|
| 2026-04-20 20:26 | 41.93085 | -72.68397 | 207 ft | 0 kts | 315° |
| 2026-04-20 20:44 | 41.93084 | -72.68394 | 207 ft | 3 kts | 314° |
| 2026-04-20 20:44 | 41.93068 | -72.68367 | 217 ft | 4 kts | 293° |
| 2026-04-20 20:44 | 41.93064 | -72.68334 | 215 ft | 4 kts | 255° |
| 2026-04-20 20:44 | 41.93077 | -72.68305 | 215 ft | 4 kts | 225° |
| 2026-04-20 20:45 | 41.93093 | -72.68284 | 219 ft | 3 kts | 224° |
| 2026-04-20 20:45 | 41.93107 | -72.68258 | 214 ft | 4 kts | 261° |
| 2026-04-20 20:45 | 41.93101 | -72.68228 | 212 ft | 4 kts | 311° |
| 2026-04-20 20:45 | 41.93096 | -72.68221 | 211 ft | 1 kts | 316° |
| 2026-04-20 20:48 | 41.93105 | -72.68230 | 212 ft | 3 kts | 328° |
| 2026-04-20 20:48 | 41.93130 | -72.68229 | 210 ft | 5 kts | 27° |
| 2026-04-20 20:48 | 41.93161 | -72.68194 | 213 ft | 7 kts | 40° |
| 2026-04-20 20:49 | 41.93211 | -72.68155 | 213 ft | 9 kts | 6° |
| 2026-04-20 20:49 | 41.93269 | -72.68201 | 208 ft | 11 kts | 314° |
| 2026-04-20 20:49 | 41.93327 | -72.68281 | 213 ft | 13 kts | 314° |
| 2026-04-20 20:49 | 41.93398 | -72.68379 | 207 ft | 16 kts | 314° |
| 2026-04-20 20:50 | 41.93481 | -72.68491 | 208 ft | 17 kts | 315° |
| 2026-04-20 20:50 | 41.93568 | -72.68608 | 208 ft | 18 kts | 315° |
| 2026-04-20 20:50 | 41.93633 | -72.68694 | 210 ft | 14 kts | 315° |
| 2026-04-20 20:50 | 41.93712 | -72.68714 | 210 ft | 13 kts | 41° |
| 2026-04-20 20:51 | 41.93780 | -72.68631 | 212 ft | 14 kts | 42° |
| 2026-04-20 20:51 | 41.93866 | -72.68523 | 208 ft | 19 kts | 44° |
| 2026-04-20 20:51 | 41.93953 | -72.68416 | 216 ft | 15 kts | 42° |
| 2026-04-20 20:51 | 41.94034 | -72.68318 | 209 ft | 17 kts | 42° |
| 2026-04-20 20:52 | 41.94120 | -72.68215 | 211 ft | 17 kts | 41° |
| 2026-04-20 20:52 | 41.94211 | -72.68104 | 217 ft | 18 kts | 43° |
| 2026-04-20 20:52 | 41.94309 | -72.67981 | 211 ft | 20 kts | 44° |
| 2026-04-20 20:52 | 41.94413 | -72.67844 | 217 ft | 20 kts | 45° |
| 2026-04-20 20:53 | 41.94508 | -72.67721 | 210 ft | 19 kts | 44° |
| 2026-04-20 20:53 | 41.94605 | -72.67594 | 219 ft | 20 kts | 44° |
| 2026-04-20 20:53 | 41.94698 | -72.67470 | 210 ft | 17 kts | 45° |
| 2026-04-20 20:53 | 41.94780 | -72.67363 | 212 ft | 16 kts | 44° |
| 2026-04-20 20:54 | 41.94857 | -72.67261 | 210 ft | 12 kts | 44° |
| 2026-04-20 20:54 | 41.94919 | -72.67180 | 215 ft | 13 kts | 44° |
| 2026-04-20 20:54 | 41.94998 | -72.67144 | 213 ft | 12 kts | 334° |
| 2026-04-20 20:54 | 41.95043 | -72.67209 | 226 ft | 9 kts | 295° |
| 2026-04-20 20:55 | 41.95022 | -72.67279 | 226 ft | 10 kts | 221° |
| 2026-04-20 20:55 | 41.94933 | -72.67394 | 219 ft | 41 kts | 225° |
| 2026-04-20 20:55 | 41.94529 | -72.67928 | 215 ft | 121 kts | 226° |
| 2026-04-20 20:55 | 41.93754 | -72.68904 | 300 ft | 178 kts | 229° |
| 2026-04-20 20:56 | 41.92819 | -72.70107 | 1163 ft | 185 kts | 228° |
| 2026-04-20 20:56 | 41.91933 | -72.71281 | 2396 ft | 186 kts | 230° |
| 2026-04-20 20:56 | 41.91113 | -72.72727 | 3102 ft | 204 kts | 251° |
| 2026-04-20 20:56 | 41.90874 | -72.74684 | 3749 ft | 228 kts | 274° |
| 2026-04-20 20:57 | 41.90918 | -72.76836 | 4885 ft | 233 kts | 273° |
| 2026-04-20 20:57 | 41.90943 | -72.79096 | 5862 ft | 250 kts | 272° |
| 2026-04-20 20:57 | 41.90960 | -72.81483 | 6912 ft | 257 kts | 272° |
| 2026-04-20 20:57 | 41.90972 | -72.83884 | 8138 ft | 258 kts | 271° |
| 2026-04-20 20:58 | 41.90980 | -72.86315 | 9276 ft | 261 kts | 270° |
| 2026-04-20 20:58 | 41.90988 | -72.88744 | 10378 ft | 265 kts | 270° |
| 2026-04-20 20:58 | 41.90993 | -72.91300 | 11000 ft | 283 kts | 270° |
| 2026-04-20 20:58 | 41.90997 | -72.94038 | 11483 ft | 303 kts | 269° |
| 2026-04-20 20:59 | 41.91001 | -72.96912 | 12113 ft | 318 kts | 269° |
| 2026-04-20 20:59 | 41.91006 | -72.99918 | 12961 ft | 323 kts | 269° |
| 2026-04-20 20:59 | 41.91011 | -73.02947 | 13900 ft | 326 kts | 269° |
| 2026-04-20 20:59 | 41.91017 | -73.06019 | 14683 ft | 330 kts | 269° |
| 2026-04-20 21:00 | 41.91021 | -73.09126 | 15422 ft | 334 kts | 269° |
| 2026-04-20 21:00 | 41.91025 | -73.12296 | 15894 ft | 346 kts | 269° |
| 2026-04-20 21:00 | 41.91027 | -73.15637 | 15923 ft | 369 kts | 269° |
| 2026-04-20 21:00 | 41.91028 | -73.19141 | 15925 ft | 390 kts | 269° |
| 2026-04-20 21:01 | 41.91029 | -73.22536 | 16635 ft | 265 kts | 270° |
| 2026-04-20 21:01 | 41.91031 | -73.25083 | 16034 ft | 277 kts | 269° |
| 2026-04-20 21:01 | 41.90901 | -73.27645 | 16091 ft | 291 kts | 257° |
| 2026-04-20 21:01 | 41.90089 | -73.30214 | 16161 ft | 309 kts | 243° |
| 2026-04-20 21:02 | 41.89014 | -73.32815 | 16159 ft | 327 kts | 242° |
| 2026-04-20 21:02 | 41.88723 | -73.33500 | 16160 ft | 332 kts | 242° |
| 2026-04-20 21:02 | 41.87932 | -73.35332 | 16165 ft | 344 kts | 241° |
| 2026-04-20 21:03 | 41.86679 | -73.38173 | 16164 ft | 362 kts | 241° |
| 2026-04-20 21:03 | 41.85353 | -73.41136 | 16175 ft | 376 kts | 240° |
| 2026-04-20 21:03 | 41.83981 | -73.44170 | 16196 ft | 382 kts | 240° |
| 2026-04-20 21:03 | 41.82596 | -73.47218 | 16235 ft | 383 kts | 240° |
| 2026-04-20 21:04 | 41.81218 | -73.50240 | 16224 ft | 383 kts | 240° |
| 2026-04-20 21:04 | 41.79830 | -73.53281 | 16232 ft | 381 kts | 240° |
| 2026-04-20 21:04 | 41.78445 | -73.56310 | 16216 ft | 381 kts | 240° |
| 2026-04-20 21:04 | 41.77059 | -73.59343 | 16233 ft | 381 kts | 240° |
| 2026-04-20 21:05 | 41.75688 | -73.62334 | 16228 ft | 381 kts | 240° |
| 2026-04-20 21:05 | 41.74301 | -73.65360 | 16228 ft | 381 kts | 240° |
| 2026-04-20 21:05 | 41.72930 | -73.68348 | 16248 ft | 366 kts | 240° |
| 2026-04-20 21:05 | 41.71622 | -73.71196 | 16128 ft | 352 kts | 240° |
| 2026-04-20 21:06 | 41.70365 | -73.73931 | 15687 ft | 347 kts | 240° |
| 2026-04-20 21:06 | 41.69095 | -73.76689 | 15201 ft | 345 kts | 240° |
| 2026-04-20 21:06 | 41.67845 | -73.79405 | 14868 ft | 339 kts | 240° |
| 2026-04-20 21:06 | 41.66653 | -73.82108 | 14423 ft | 335 kts | 247° |
| 2026-04-20 21:07 | 41.65911 | -73.85001 | 14026 ft | 329 kts | 253° |
| 2026-04-20 21:07 | 41.65216 | -73.87900 | 13648 ft | 326 kts | 253° |
| 2026-04-20 21:07 | 41.64517 | -73.90836 | 13197 ft | 332 kts | 253° |
| 2026-04-20 21:07 | 41.63811 | -73.93808 | 12732 ft | 336 kts | 253° |
| 2026-04-20 21:08 | 41.63113 | -73.96754 | 12291 ft | 335 kts | 253° |
| 2026-04-20 21:08 | 41.62409 | -73.99718 | 11852 ft | 334 kts | 253° |
| 2026-04-20 21:08 | 41.61706 | -74.02679 | 11599 ft | 326 kts | 254° |
| 2026-04-20 21:08 | 41.61035 | -74.05495 | 11449 ft | 315 kts | 254° |
| 2026-04-20 21:09 | 41.60381 | -74.08244 | 11277 ft | 305 kts | 254° |
| 2026-04-20 21:09 | 41.59746 | -74.10908 | 11118 ft | 295 kts | 253° |
| 2026-04-20 21:09 | 41.59141 | -74.13446 | 10967 ft | 285 kts | 254° |
| 2026-04-20 21:09 | 41.58546 | -74.15933 | 10826 ft | 276 kts | 254° |
| 2026-04-20 21:10 | 41.57970 | -74.18343 | 10699 ft | 267 kts | 253° |
| 2026-04-20 21:10 | 41.57413 | -74.20669 | 10556 ft | 258 kts | 254° |
| 2026-04-20 21:10 | 41.56877 | -74.22904 | 10426 ft | 250 kts | 254° |
| 2026-04-20 21:10 | 41.56353 | -74.25086 | 10305 ft | 241 kts | 254° |
| 2026-04-20 21:11 | 41.55845 | -74.27207 | 10091 ft | 247 kts | 254° |
| 2026-04-20 21:11 | 41.55312 | -74.29428 | 9776 ft | 254 kts | 254° |
| 2026-04-20 21:11 | 41.54704 | -74.31660 | 9443 ft | 258 kts | 242° |
| 2026-04-20 21:11 | 41.53476 | -74.33441 | 9074 ft | 266 kts | 216° |
| 2026-04-20 21:12 | 41.51770 | -74.34425 | 8800 ft | 266 kts | 202° |
| 2026-04-20 21:12 | 41.50039 | -74.35212 | 8543 ft | 263 kts | 202° |
| 2026-04-20 21:12 | 41.48313 | -74.35985 | 8285 ft | 260 kts | 202° |
| 2026-04-20 21:12 | 41.46596 | -74.36744 | 8000 ft | 258 kts | 203° |
| 2026-04-20 21:13 | 41.44913 | -74.37479 | 7743 ft | 259 kts | 202° |
| 2026-04-20 21:13 | 41.43152 | -74.38244 | 7465 ft | 265 kts | 202° |
| 2026-04-20 21:13 | 41.41411 | -74.38995 | 7259 ft | 267 kts | 202° |
| 2026-04-20 21:13 | 41.39639 | -74.39758 | 7255 ft | 268 kts | 201° |
| 2026-04-20 21:14 | 41.37858 | -74.40524 | 7256 ft | 268 kts | 201° |
| 2026-04-20 21:14 | 41.36081 | -74.41287 | 7252 ft | 268 kts | 202° |
| 2026-04-20 21:14 | 41.34293 | -74.42056 | 7256 ft | 269 kts | 201° |
| 2026-04-20 21:14 | 41.32531 | -74.42813 | 7257 ft | 269 kts | 201° |
| 2026-04-20 21:15 | 41.30728 | -74.43587 | 7261 ft | 269 kts | 201° |
| 2026-04-20 21:15 | 41.28970 | -74.44343 | 7260 ft | 269 kts | 201° |
| 2026-04-20 21:15 | 41.27762 | -74.44860 | 7267 ft | 269 kts | 202° |
| 2026-04-20 21:15 | 41.26005 | -74.45612 | 7257 ft | 268 kts | 201° |
| 2026-04-20 21:16 | 41.24220 | -74.46377 | 7265 ft | 268 kts | 201° |
| 2026-04-20 21:16 | 41.22436 | -74.47140 | 7264 ft | 269 kts | 201° |
| 2026-04-20 21:16 | 41.20649 | -74.47903 | 7222 ft | 269 kts | 201° |
| 2026-04-20 21:16 | 41.18893 | -74.48653 | 7087 ft | 268 kts | 201° |
| 2026-04-20 21:17 | 41.17118 | -74.49413 | 7037 ft | 268 kts | 201° |
| 2026-04-20 21:17 | 41.15341 | -74.50172 | 7027 ft | 268 kts | 201° |
| 2026-04-20 21:17 | 41.13547 | -74.50937 | 7031 ft | 269 kts | 201° |
| 2026-04-20 21:17 | 41.11785 | -74.51689 | 7018 ft | 269 kts | 201° |
| 2026-04-20 21:18 | 41.09993 | -74.52452 | 7042 ft | 269 kts | 201° |
| 2026-04-20 21:18 | 41.08210 | -74.53211 | 7038 ft | 268 kts | 201° |
| 2026-04-20 21:18 | 41.06433 | -74.53868 | 7024 ft | 270 kts | 192° |
| 2026-04-20 21:18 | 41.04544 | -74.54071 | 7038 ft | 272 kts | 186° |
| 2026-04-20 21:19 | 41.02656 | -74.54226 | 7040 ft | 272 kts | 186° |
| 2026-04-20 21:19 | 41.00765 | -74.54392 | 7034 ft | 272 kts | 187° |
| 2026-04-20 21:19 | 40.98872 | -74.54563 | 7026 ft | 273 kts | 186° |
| 2026-04-20 21:20 | 40.95108 | -74.54907 | 7032 ft | 271 kts | 187° |
| 2026-04-20 21:20 | 40.93238 | -74.55080 | 7015 ft | 272 kts | 187° |
| 2026-04-20 21:20 | 40.91340 | -74.55256 | 7009 ft | 272 kts | 187° |
| 2026-04-20 21:20 | 40.89440 | -74.55430 | 6892 ft | 276 kts | 186° |
| 2026-04-20 21:21 | 40.87504 | -74.55608 | 6686 ft | 280 kts | 186° |
| 2026-04-20 21:21 | 40.85554 | -74.55788 | 6397 ft | 281 kts | 186° |
| 2026-04-20 21:21 | 40.83601 | -74.55967 | 6063 ft | 280 kts | 186° |
| 2026-04-20 21:21 | 40.81684 | -74.55943 | 5758 ft | 279 kts | 179° |
| 2026-04-20 21:22 | 40.79736 | -74.55812 | 5389 ft | 279 kts | 179° |
| 2026-04-20 21:22 | 40.77791 | -74.55695 | 5042 ft | 279 kts | 180° |
| 2026-04-20 21:22 | 40.75858 | -74.55590 | 4728 ft | 277 kts | 179° |
| 2026-04-20 21:22 | 40.73956 | -74.55492 | 4386 ft | 276 kts | 180° |
| 2026-04-20 21:23 | 40.72026 | -74.55398 | 4030 ft | 277 kts | 180° |
| 2026-04-20 21:23 | 40.70113 | -74.55305 | 3849 ft | 270 kts | 180° |
| 2026-04-20 21:23 | 40.68290 | -74.55216 | 3727 ft | 261 kts | 180° |
| 2026-04-20 21:23 | 40.66470 | -74.55131 | 3397 ft | 261 kts | 180° |
| 2026-04-20 21:24 | 40.64661 | -74.54886 | 3082 ft | 262 kts | 163° |
| 2026-04-20 21:24 | 40.63128 | -74.53680 | 2984 ft | 254 kts | 134° |
| 2026-04-20 21:24 | 40.62003 | -74.51961 | 3022 ft | 248 kts | 128° |
| 2026-04-20 21:24 | 40.60930 | -74.50206 | 2982 ft | 245 kts | 128° |
| 2026-04-20 21:25 | 40.59860 | -74.48461 | 3015 ft | 244 kts | 128° |
| 2026-04-20 21:25 | 40.58810 | -74.46717 | 2977 ft | 242 kts | 128° |
| 2026-04-20 21:25 | 40.57764 | -74.44981 | 2865 ft | 241 kts | 128° |
| 2026-04-20 21:25 | 40.56766 | -74.43213 | 2800 ft | 239 kts | 115° |
| 2026-04-20 21:26 | 40.56277 | -74.41167 | 2809 ft | 237 kts | 98° |
| 2026-04-20 21:26 | 40.55969 | -74.39057 | 2812 ft | 231 kts | 98° |
| 2026-04-20 21:26 | 40.55677 | -74.36993 | 2832 ft | 228 kts | 97° |
| 2026-04-20 21:26 | 40.55401 | -74.34971 | 2806 ft | 226 kts | 93° |
| 2026-04-20 21:27 | 40.55359 | -74.32933 | 2762 ft | 218 kts | 85° |
| 2026-04-20 21:27 | 40.55397 | -74.30966 | 2772 ft | 215 kts | 84° |
| 2026-04-20 21:27 | 40.55437 | -74.29002 | 2829 ft | 214 kts | 82° |
| 2026-04-20 21:27 | 40.55719 | -74.27107 | 2769 ft | 209 kts | 64° |
| 2026-04-20 21:28 | 40.56362 | -74.25397 | 2548 ft | 207 kts | 51° |
| 2026-04-20 21:28 | 40.57345 | -74.24108 | 2363 ft | 193 kts | 29° |
| 2026-04-20 21:28 | 40.58466 | -74.23310 | 2164 ft | 182 kts | 21° |
| 2026-04-20 21:28 | 40.59604 | -74.22597 | 1918 ft | 180 kts | 20° |
| 2026-04-20 21:29 | 40.60694 | -74.21908 | 1665 ft | 167 kts | 22° |
| 2026-04-20 21:29 | 40.61682 | -74.21279 | 1449 ft | 148 kts | 21° |
| 2026-04-20 21:29 | 40.62565 | -74.20722 | 1244 ft | 135 kts | 20° |
| 2026-04-20 21:29 | 40.63400 | -74.20193 | 1082 ft | 134 kts | 20° |
| 2026-04-20 21:30 | 40.64235 | -74.19665 | 879 ft | 133 kts | 21° |
| 2026-04-20 21:30 | 40.64992 | -74.19183 | 730 ft | 135 kts | 21° |
| 2026-04-20 21:30 | 40.65831 | -74.18650 | 529 ft | 132 kts | 20° |
| 2026-04-20 21:30 | 40.66641 | -74.18135 | 349 ft | 131 kts | 21° |
| 2026-04-20 21:31 | 40.67197 | -74.17780 | 242 ft | 132 kts | 20° |
| 2026-04-20 21:31 | 40.67866 | -74.17357 | 93 ft | 133 kts | 20° |
| 2026-04-20 21:31 | 40.68661 | -74.16853 | 24 ft | 109 kts | 23° |
| 2026-04-20 21:31 | 40.69160 | -74.16589 | 27 ft | 52 kts | 1° |
| 2026-04-20 21:32 | 40.69313 | -74.16597 | 26 ft | 6 kts | 355° |
| 2026-04-20 21:32 | 40.69365 | -74.16602 | 28 ft | 13 kts | 355° |
| 2026-04-20 21:32 | 40.69397 | -74.16617 | 28 ft | 6 kts | 319° |
| 2026-04-20 21:32 | 40.69428 | -74.16695 | 28 ft | 14 kts | 295° |
| 2026-04-20 21:33 | 40.69475 | -74.16825 | 25 ft | 18 kts | 296° |
| 2026-04-20 21:33 | 40.69511 | -74.16928 | 29 ft | 8 kts | 283° |
| 2026-04-20 21:33 | 40.69463 | -74.17001 | 28 ft | 16 kts | 212° |
| 2026-04-20 21:33 | 40.69374 | -74.17059 | 24 ft | 14 kts | 204° |
| 2026-04-20 21:34 | 40.69300 | -74.17106 | 28 ft | 12 kts | 206° |
| 2026-04-20 21:34 | 40.69226 | -74.17152 | 24 ft | 13 kts | 206° |
| 2026-04-20 21:34 | 40.69164 | -74.17192 | 24 ft | 9 kts | 206° |
| 2026-04-20 21:34 | 40.69101 | -74.17233 | 24 ft | 12 kts | 206° |
| 2026-04-20 21:35 | 40.69020 | -74.17284 | 24 ft | 12 kts | 205° |
| 2026-04-20 21:35 | 40.68962 | -74.17320 | 24 ft | 9 kts | 206° |
| 2026-04-20 21:35 | 40.68897 | -74.17362 | 26 ft | 12 kts | 206° |
| 2026-04-20 21:35 | 40.68827 | -74.17406 | 25 ft | 11 kts | 205° |
| 2026-04-20 21:36 | 40.68772 | -74.17441 | 25 ft | 9 kts | 205° |
| 2026-04-20 21:36 | 40.68708 | -74.17481 | 26 ft | 11 kts | 205° |
| 2026-04-20 21:36 | 40.68639 | -74.17525 | 29 ft | 10 kts | 206° |
| 2026-04-20 21:36 | 40.68581 | -74.17563 | 26 ft | 8 kts | 206° |
| 2026-04-20 21:37 | 40.68523 | -74.17599 | 25 ft | 10 kts | 205° |
| 2026-04-20 21:37 | 40.68458 | -74.17653 | 25 ft | 12 kts | 237° |
| 2026-04-20 21:37 | 40.68480 | -74.17752 | 26 ft | 13 kts | 298° |
| 2026-04-20 21:37 | 40.68517 | -74.17851 | 25 ft | 12 kts | 295° |
| 2026-04-20 21:38 | 40.68556 | -74.17956 | 25 ft | 11 kts | 296° |
| 2026-04-20 21:38 | 40.68577 | -74.18039 | 25 ft | 10 kts | 273° |
| 2026-04-20 21:38 | 40.68567 | -74.18117 | 25 ft | 9 kts | 239° |
| 2026-04-20 21:38 | 40.68515 | -74.18155 | 25 ft | 8 kts | 202° |
| 2026-04-20 21:39 | 40.68469 | -74.18193 | 25 ft | 3 kts | 214° |
| 2026-04-20 21:39 | 40.68444 | -74.18215 | 25 ft | 5 kts | 214° |
| 2026-04-20 21:39 | 40.68427 | -74.18231 | 25 ft | 2 kts | 214° |
| 2026-04-20 21:39 | 40.68423 | -74.18235 | 28 ft | 0 kts | 214° |